createdAt,value
2018-04-29T00:01:58.803Z,12.93
2018-04-29T00:04:26.717Z,12.97
2018-04-29T00:06:54.650Z,14.10
2018-04-29T00:09:22.592Z,12.67
2018-04-29T00:11:50.506Z,13.27
2018-04-29T00:14:18.429Z,12.27
2018-04-29T00:16:46.369Z,14.47
2018-04-29T00:19:14.283Z,14.27
2018-04-29T00:21:42.205Z,14.20
2018-04-29T00:24:10.137Z,14.00
2018-04-29T00:26:38.059Z,14.87
2018-04-29T00:29:05.989Z,13.27
2018-04-29T00:31:33.918Z,13.80
2018-04-29T00:34:02.049Z,13.70
2018-04-29T00:36:29.971Z,14.30
2018-04-29T00:38:57.878Z,13.40
2018-04-29T00:41:25.821Z,15.63
2018-04-29T00:43:53.729Z,13.10
2018-04-29T00:46:21.658Z,14.40
2018-04-29T00:48:49.574Z,13.90
2018-04-29T00:51:17.488Z,14.07
2018-04-29T00:53:45.393Z,15.00
2018-04-29T00:56:13.314Z,16.17
2018-04-29T00:58:41.233Z,15.50
2018-04-29T01:01:09.177Z,15.60
2018-04-29T01:03:37.112Z,15.53
2018-04-29T01:06:05.027Z,15.13
2018-04-29T01:08:33.002Z,16.03
2018-04-29T01:11:00.959Z,15.77
2018-04-29T01:13:28.869Z,15.60
2018-04-29T01:15:56.835Z,16.97
2018-04-29T01:18:24.739Z,16.87
2018-04-29T01:20:52.633Z,15.83
2018-04-29T01:23:20.893Z,16.17
2018-04-29T01:25:48.801Z,16.13
2018-04-29T01:28:16.735Z,17.20
2018-04-29T01:30:44.646Z,16.10
2018-04-29T01:33:12.546Z,16.60
2018-04-29T01:35:40.697Z,15.80
2018-04-29T01:38:08.623Z,16.67
2018-04-29T01:40:36.537Z,15.73
2018-04-29T01:43:04.446Z,16.60
2018-04-29T01:45:32.350Z,17.50
2018-04-29T01:48:00.249Z,16.27
2018-04-29T01:50:28.149Z,17.20
2018-04-29T01:52:56.053Z,17.37
2018-04-29T01:55:23.975Z,17.90
2018-04-29T01:57:51.901Z,18.40
2018-04-29T02:00:19.817Z,18.00
2018-04-29T02:02:47.709Z,17.40
2018-04-29T02:05:15.605Z,20.17
2018-04-29T02:07:43.594Z,18.23
2018-04-29T02:10:11.523Z,17.53
2018-04-29T02:12:39.438Z,16.67
2018-04-29T02:15:07.333Z,16.23
2018-04-29T02:17:35.225Z,17.60
2018-04-29T02:20:03.129Z,18.30
2018-04-29T02:22:31.021Z,18.20
2018-04-29T02:24:58.929Z,17.37
2018-04-29T02:27:26.837Z,18.83
2018-04-29T02:29:54.759Z,18.20
2018-04-29T02:32:22.654Z,18.93
2018-04-29T02:34:50.562Z,18.90
2018-04-29T02:37:18.611Z,19.37
2018-04-29T02:39:46.506Z,19.60
2018-04-29T02:42:14.410Z,18.47
2018-04-29T02:44:42.354Z,20.40
2018-04-29T02:47:10.257Z,19.40
2018-04-29T02:49:38.181Z,20.53
2018-04-29T02:52:06.101Z,21.00
2018-04-29T02:54:34.037Z,22.20
2018-04-29T02:57:01.972Z,19.43
2018-04-29T02:59:29.889Z,21.87
2018-04-29T03:01:57.790Z,22.77
2018-04-29T03:04:25.718Z,20.60
2018-04-29T03:06:53.621Z,21.87
2018-04-29T03:09:21.595Z,21.67
2018-04-29T03:11:49.519Z,21.03
2018-04-29T03:14:17.439Z,20.07
2018-04-29T03:16:45.353Z,20.10
2018-04-29T03:19:13.257Z,19.73
2018-04-29T03:21:41.175Z,20.47
2018-04-29T03:24:09.080Z,20.47
2018-04-29T03:26:36.980Z,20.33
2018-04-29T03:29:04.885Z,21.40
2018-04-29T03:31:32.835Z,19.67
2018-04-29T03:34:00.730Z,21.87
2018-04-29T03:36:28.638Z,19.40
2018-04-29T03:38:56.804Z,19.87
2018-04-29T03:41:24.717Z,19.63
2018-04-29T03:43:52.620Z,21.10
2018-04-29T03:46:20.518Z,20.10
2018-04-29T03:48:48.434Z,21.53
2018-04-29T03:51:17.303Z,20.63
2018-04-29T03:53:45.202Z,19.53
2018-04-29T03:56:13.127Z,20.40
2018-04-29T03:58:47.217Z,20.97
2018-04-29T04:01:21.361Z,20.33
2018-04-29T04:03:57.746Z,19.70
2018-04-29T04:06:25.645Z,19.70
2018-04-29T04:08:53.551Z,20.97
2018-04-29T04:11:21.444Z,20.63
2018-04-29T04:13:49.362Z,21.23
2018-04-29T04:16:17.234Z,20.80
2018-04-29T04:18:45.127Z,21.37
2018-04-29T04:21:13.086Z,19.00
2018-04-29T04:23:41.035Z,20.40
2018-04-29T04:26:08.934Z,20.90
2018-04-29T04:28:36.833Z,21.47
2018-04-29T04:31:04.749Z,20.30
2018-04-29T04:33:32.670Z,19.07
2018-04-29T04:36:00.577Z,18.37
2018-04-29T04:38:28.487Z,18.80
2018-04-29T04:40:56.583Z,18.77
2018-04-29T04:43:24.484Z,20.50
2018-04-29T04:45:52.419Z,20.20
2018-04-29T04:48:20.322Z,18.77
2018-04-29T04:50:48.236Z,20.50
2018-04-29T04:53:16.126Z,21.00
2018-04-29T04:55:44.125Z,20.03
2018-04-29T04:58:12.093Z,20.13
2018-04-29T05:00:39.974Z,21.27
2018-04-29T05:03:07.888Z,18.47
2018-04-29T05:05:35.808Z,20.50
2018-04-29T05:08:03.745Z,21.80
2018-04-29T05:10:31.675Z,20.10
2018-04-29T05:12:59.629Z,21.90
2018-04-29T05:15:27.527Z,21.80
2018-04-29T05:17:55.422Z,21.70
2018-04-29T05:20:23.356Z,21.30
2018-04-29T05:22:51.954Z,20.97
2018-04-29T05:25:19.974Z,21.57
2018-04-29T05:27:47.892Z,23.50
2018-04-29T05:30:15.844Z,22.00
2018-04-29T05:32:43.750Z,21.90
2018-04-29T05:35:11.812Z,21.90
2018-04-29T05:37:39.727Z,21.77
2018-04-29T05:40:07.963Z,20.57
2018-04-29T05:42:36.155Z,22.50
2018-04-29T05:45:04.350Z,21.03
2018-04-29T05:47:32.288Z,19.83
2018-04-29T05:50:00.181Z,22.27
2018-04-29T05:52:28.118Z,24.37
2018-04-29T05:54:56.017Z,19.10
2018-04-29T05:57:23.929Z,20.07
2018-04-29T05:59:51.833Z,18.70
2018-04-29T06:02:19.745Z,19.53
2018-04-29T06:04:47.661Z,19.93
2018-04-29T06:07:15.581Z,18.30
2018-04-29T06:09:43.489Z,18.93
2018-04-29T06:12:11.391Z,19.70
2018-04-29T06:14:39.307Z,17.87
2018-04-29T06:17:07.254Z,19.10
2018-04-29T06:19:35.151Z,19.80
2018-04-29T06:22:03.075Z,20.50
2018-04-29T06:24:31.006Z,22.30
2018-04-29T06:26:58.934Z,22.90
2018-04-29T06:29:26.914Z,21.70
2018-04-29T06:31:54.870Z,20.60
2018-04-29T06:34:22.741Z,19.60
2018-04-29T06:36:50.775Z,19.10
2018-04-29T06:39:18.733Z,19.43
2018-04-29T06:41:46.673Z,19.30
2018-04-29T06:44:14.789Z,19.53
2018-04-29T06:46:42.695Z,17.03
2018-04-29T06:49:10.610Z,17.00
2018-04-29T06:51:38.509Z,19.20
2018-04-29T06:54:06.417Z,19.00
2018-04-29T06:56:34.325Z,20.40
2018-04-29T06:59:02.271Z,17.73
2018-04-29T07:01:30.373Z,17.93
2018-04-29T07:03:58.282Z,18.73
2018-04-29T07:06:26.187Z,16.90
2018-04-29T07:08:54.092Z,16.33
2018-04-29T07:11:21.997Z,16.10
2018-04-29T07:13:50.143Z,17.90
2018-04-29T07:16:18.077Z,17.67
2018-04-29T07:18:45.993Z,17.60
2018-04-29T07:21:13.893Z,18.27
2018-04-29T07:23:41.789Z,17.40
2018-04-29T07:26:09.690Z,16.60
2018-04-29T07:28:37.665Z,16.80
2018-04-29T07:31:05.583Z,18.43
2018-04-29T07:33:33.525Z,17.40
2018-04-29T07:36:01.462Z,18.17
2018-04-29T07:38:29.369Z,19.80
2018-04-29T07:40:57.280Z,17.80
2018-04-29T07:43:25.186Z,17.90
2018-04-29T07:45:53.317Z,17.40
2018-04-29T07:48:21.245Z,16.57
2018-04-29T07:50:49.138Z,17.80
2018-04-29T07:53:17.051Z,14.33
2018-04-29T07:55:44.969Z,15.20
2018-04-29T07:58:12.915Z,16.10
2018-04-29T08:00:40.859Z,16.67
2018-04-29T08:03:08.735Z,16.80
2018-04-29T08:05:36.637Z,16.43
2018-04-29T08:08:04.550Z,17.00
2018-04-29T08:10:32.474Z,16.33
2018-04-29T08:13:00.428Z,16.70
2018-04-29T08:15:28.418Z,16.30
2018-04-29T08:17:56.228Z,16.63
2018-04-29T08:20:24.117Z,15.17
2018-04-29T08:22:52.027Z,15.93
2018-04-29T08:25:20.006Z,14.47
2018-04-29T08:27:47.917Z,17.20
2018-04-29T08:30:15.834Z,16.30
2018-04-29T08:32:43.734Z,17.20
2018-04-29T08:35:11.629Z,14.47
2018-04-29T08:37:39.537Z,15.20
2018-04-29T08:40:07.461Z,13.30
2018-04-29T08:42:35.418Z,12.60
2018-04-29T08:45:03.312Z,14.90
2018-04-29T08:47:31.465Z,13.90
2018-04-29T08:49:59.361Z,14.57
2018-04-29T08:52:27.265Z,15.47
2018-04-29T08:54:55.210Z,15.47
2018-04-29T08:57:23.069Z,14.00
2018-04-29T08:59:50.982Z,15.00
2018-04-29T09:02:18.882Z,13.10
2018-04-29T09:04:46.762Z,13.70
2018-04-29T09:07:14.680Z,14.10
2018-04-29T09:09:42.577Z,12.57
2018-04-29T09:12:10.470Z,12.73
2018-04-29T09:14:38.394Z,12.57
2018-04-29T09:17:06.489Z,11.90
2018-04-29T09:19:34.406Z,13.60
2018-04-29T09:22:02.312Z,11.37
2018-04-29T09:24:30.233Z,12.47
2018-04-29T09:26:58.131Z,12.93
2018-04-29T09:29:32.925Z,15.00
2018-04-29T09:32:00.825Z,13.27
2018-04-29T09:34:28.732Z,13.17
2018-04-29T09:36:57.501Z,11.73
2018-04-29T09:39:25.364Z,14.97
2018-04-29T09:41:53.333Z,13.90
2018-04-29T09:44:21.252Z,11.87
2018-04-29T09:46:49.234Z,14.53
2018-04-29T09:49:17.397Z,13.57
2018-04-29T09:51:45.340Z,14.73
2018-04-29T09:54:13.278Z,14.80
2018-04-29T09:56:41.180Z,15.00
2018-04-29T09:59:09.090Z,14.60
2018-04-29T10:01:37.054Z,15.47
2018-04-29T10:04:04.989Z,14.97
2018-04-29T10:06:32.901Z,13.70
2018-04-29T10:09:00.844Z,14.23
2018-04-29T10:11:28.746Z,14.00
2018-04-29T10:13:56.659Z,12.40
2018-04-29T10:16:24.590Z,13.90
2018-04-29T10:18:52.598Z,15.00
2018-04-29T10:21:20.470Z,14.07
2018-04-29T10:23:48.390Z,12.83
2018-04-29T10:26:16.358Z,12.40
2018-04-29T10:28:44.261Z,12.80
2018-04-29T10:31:12.158Z,14.20
2018-04-29T10:33:40.081Z,11.10
2018-04-29T10:36:08.012Z,11.60
2018-04-29T10:38:35.927Z,9.70
2018-04-29T10:41:03.912Z,11.53
2018-04-29T10:43:31.886Z,15.70
2018-04-29T10:45:59.805Z,12.10
2018-04-29T10:48:27.704Z,12.47
2018-04-29T10:50:55.790Z,12.40
2018-04-29T10:53:23.721Z,10.73
2018-04-29T10:55:51.647Z,12.93
2018-04-29T10:58:19.540Z,12.30
2018-04-29T11:00:47.457Z,11.40
2018-04-29T11:03:15.381Z,11.00
2018-04-29T11:05:43.279Z,13.13
2018-04-29T11:08:11.173Z,14.73
2018-04-29T11:10:39.079Z,11.63
2018-04-29T11:13:07.362Z,13.67
2018-04-29T11:15:35.287Z,13.20
2018-04-29T11:18:03.187Z,13.10
2018-04-29T11:20:31.098Z,12.50
2018-04-29T11:22:59.004Z,13.63
2018-04-29T11:25:26.918Z,10.40
2018-04-29T11:27:54.858Z,10.33
2018-04-29T11:30:22.773Z,10.60
2018-04-29T11:32:50.678Z,13.20
2018-04-29T11:35:18.569Z,14.90
2018-04-29T11:37:46.463Z,11.80
2018-04-29T11:40:14.433Z,9.03
2018-04-29T11:42:42.283Z,9.30
2018-04-29T11:45:10.260Z,9.00
2018-04-29T11:47:38.181Z,12.00
2018-04-29T11:50:06.101Z,12.23
2018-04-29T11:52:34.273Z,11.60
2018-04-29T11:55:02.188Z,14.90
2018-04-29T11:57:30.105Z,13.93
2018-04-29T11:59:57.999Z,11.80
2018-04-29T12:02:25.950Z,13.10
2018-04-29T12:04:53.870Z,14.00
2018-04-29T12:07:21.793Z,14.73
2018-04-29T12:09:49.778Z,14.27
2018-04-29T12:12:17.614Z,13.70
2018-04-29T12:14:45.520Z,12.40
2018-04-29T12:17:13.461Z,14.57
2018-04-29T12:19:41.372Z,13.80
2018-04-29T12:22:09.359Z,12.33
2018-04-29T12:24:37.339Z,13.10
2018-04-29T12:27:05.186Z,13.50
2018-04-29T12:29:33.092Z,11.23
2018-04-29T12:32:01.047Z,11.90
2018-04-29T12:34:28.974Z,13.03
2018-04-29T12:36:56.877Z,13.17
2018-04-29T12:39:24.839Z,11.27
2018-04-29T12:41:52.741Z,11.10
2018-04-29T12:44:20.697Z,10.33
2018-04-29T12:46:48.610Z,9.83
2018-04-29T12:49:16.529Z,10.10
2018-04-29T12:51:44.429Z,10.27
2018-04-29T12:54:12.566Z,11.57
2018-04-29T12:56:40.611Z,12.63
2018-04-29T12:59:08.584Z,10.93
2018-04-29T13:01:36.520Z,11.67
2018-04-29T13:04:04.690Z,12.53
2018-04-29T13:06:32.705Z,10.80
2018-04-29T13:09:00.619Z,11.07
2018-04-29T13:11:28.554Z,12.20
2018-04-29T13:13:56.499Z,13.00
2018-04-29T13:16:24.414Z,12.67
2018-04-29T13:18:52.318Z,14.20
2018-04-29T13:21:20.250Z,14.80
2018-04-29T13:23:48.164Z,13.30
2018-04-29T13:26:16.129Z,13.10
2018-04-29T13:28:44.054Z,13.23
2018-04-29T13:31:11.969Z,13.50
2018-04-29T13:33:39.885Z,14.03
2018-04-29T13:36:07.791Z,16.10
2018-04-29T13:38:35.753Z,14.43
2018-04-29T13:41:03.656Z,13.37
2018-04-29T13:43:31.553Z,15.07
2018-04-29T13:45:59.549Z,15.50
2018-04-29T13:48:27.437Z,18.20
2018-04-29T13:50:55.330Z,15.50
2018-04-29T13:53:23.241Z,18.50
2018-04-29T13:55:51.414Z,18.80
2018-04-29T13:58:19.438Z,18.67
2018-04-29T14:00:49.892Z,17.90
2018-04-29T14:03:17.822Z,16.97
2018-04-29T14:05:45.841Z,18.63
2018-04-29T14:08:14.051Z,19.40
2018-04-29T14:10:42.058Z,17.03
2018-04-29T14:13:09.884Z,16.40
2018-04-29T14:15:37.798Z,19.70
2018-04-29T14:18:05.778Z,19.30
2018-04-29T14:20:33.766Z,18.60
2018-04-29T14:23:01.693Z,15.90
2018-04-29T14:25:29.617Z,17.10
2018-04-29T14:27:57.513Z,14.43
2018-04-29T14:30:26.491Z,16.30
2018-04-29T14:32:54.437Z,16.00
2018-04-29T14:35:22.368Z,15.33
2018-04-29T14:37:50.293Z,18.40
2018-04-29T14:40:18.207Z,14.67
2018-04-29T14:42:46.151Z,14.47
2018-04-29T14:45:14.065Z,14.73
2018-04-29T14:47:41.961Z,14.87
2018-04-29T14:50:09.863Z,15.27
2018-04-29T14:52:37.789Z,14.63
2018-04-29T14:55:05.722Z,15.20
2018-04-29T14:57:33.793Z,17.03
2018-04-29T15:00:01.714Z,14.73
2018-04-29T15:02:29.653Z,18.23
2018-04-29T15:04:57.547Z,17.93
2018-04-29T15:07:25.472Z,17.97
2018-04-29T15:09:53.418Z,16.57
2018-04-29T15:12:21.342Z,17.17
2018-04-29T15:14:49.242Z,19.73
2018-04-29T15:17:17.151Z,21.00
2018-04-29T15:19:48.055Z,17.60
2018-04-29T15:22:16.002Z,16.40
2018-04-29T15:24:43.906Z,17.53
2018-04-29T15:27:11.806Z,16.23
2018-04-29T15:29:39.732Z,19.53
2018-04-29T15:32:07.643Z,19.67
2018-04-29T15:34:35.566Z,23.50
2018-04-29T15:37:03.482Z,17.70
2018-04-29T15:39:31.375Z,18.43
2018-04-29T15:41:59.290Z,19.73
2018-04-29T15:44:27.234Z,17.00
2018-04-29T15:46:55.142Z,17.03
2018-04-29T15:49:23.080Z,17.33
2018-04-29T15:51:51.033Z,16.85
2018-04-29T15:54:18.969Z,15.90
2018-04-29T15:56:46.859Z,18.03
2018-04-29T15:59:15.039Z,17.97
2018-04-29T16:01:42.986Z,18.10
2018-04-29T16:04:10.901Z,17.37
2018-04-29T16:06:38.796Z,17.23
2018-04-29T16:09:06.698Z,17.20
2018-04-29T16:11:34.626Z,19.00
2018-04-29T16:14:02.573Z,21.17
2018-04-29T16:16:30.475Z,17.00
2018-04-29T16:18:58.377Z,20.10
2018-04-29T16:21:26.289Z,20.03
2018-04-29T16:23:54.194Z,19.70
2018-04-29T16:26:22.106Z,18.70
2018-04-29T16:28:50.034Z,21.10
2018-04-29T16:31:17.930Z,18.77
2018-04-29T16:33:45.836Z,21.27
2018-04-29T16:36:13.774Z,19.13
2018-04-29T16:38:41.682Z,18.30
2018-04-29T16:41:09.596Z,23.90
2018-04-29T16:43:37.522Z,20.00
2018-04-29T16:46:05.463Z,20.97
2018-04-29T16:48:33.369Z,22.50
2018-04-29T16:51:01.262Z,20.10
2018-04-29T16:53:29.174Z,20.93
2018-04-29T16:55:57.094Z,19.03
2018-04-29T16:58:24.998Z,20.13
2018-04-29T17:00:53.097Z,18.70
2018-04-29T17:03:20.999Z,19.47
2018-04-29T17:05:48.901Z,18.57
2018-04-29T17:08:16.785Z,19.90
2018-04-29T17:10:44.684Z,17.63
2018-04-29T17:13:12.669Z,19.03
2018-04-29T17:15:40.600Z,19.10
2018-04-29T17:18:08.506Z,19.20
2018-04-29T17:20:36.421Z,18.67
2018-04-29T17:23:04.325Z,19.17
2018-04-29T17:25:32.225Z,18.03
2018-04-29T17:28:00.175Z,20.50
2018-04-29T17:30:28.162Z,22.50
2018-04-29T17:36:35.842Z,20.00
2018-04-29T17:39:04.442Z,19.10
2018-04-29T17:41:32.333Z,21.43
2018-04-29T17:44:00.231Z,25.37
2018-04-29T17:46:28.149Z,28.93
2018-04-29T17:48:56.099Z,25.73
2018-04-29T17:51:24.095Z,25.03
2018-04-29T17:53:52.042Z,22.07
2018-04-29T17:56:20.066Z,25.77
2018-04-29T17:58:48.022Z,24.27
2018-04-29T18:01:16.181Z,23.37
2018-04-29T18:03:44.177Z,26.27
2018-04-29T18:06:12.144Z,22.43
2018-04-29T18:08:40.124Z,21.47
2018-04-29T18:11:08.047Z,23.63
2018-04-29T18:13:36.005Z,28.33
2018-04-29T18:16:03.977Z,99.50
2018-04-29T18:18:31.954Z,36.77
2018-04-29T18:20:59.913Z,57.37
2018-04-29T18:23:27.878Z,35.53
2018-04-29T18:25:55.837Z,33.47
2018-04-29T18:28:23.839Z,34.30
2018-04-29T18:30:51.805Z,30.00
2018-04-29T18:33:19.810Z,35.40
2018-04-29T18:35:47.762Z,36.27
2018-04-29T18:38:15.698Z,23.57
2018-04-29T18:40:43.836Z,29.03
2018-04-29T18:43:11.916Z,26.47
2018-04-29T18:45:39.923Z,45.17
2018-04-29T18:48:07.867Z,31.77
2018-04-29T18:50:36.933Z,25.27
2018-04-29T18:53:04.718Z,23.50
2018-04-29T18:55:32.693Z,33.47
2018-04-29T18:58:00.674Z,28.33
2018-04-29T19:00:28.682Z,41.10
2018-04-29T19:02:56.822Z,42.20
2018-04-29T19:05:25.649Z,31.20
2018-04-29T19:07:53.646Z,23.53
2018-04-29T19:10:21.615Z,20.97
2018-04-29T19:12:49.606Z,20.37
2018-04-29T19:15:17.582Z,20.23
2018-04-29T19:17:45.509Z,21.10
2018-04-29T19:20:13.502Z,25.07
2018-04-29T19:22:41.466Z,24.00
2018-04-29T19:25:09.452Z,40.50
2018-04-29T19:27:37.446Z,50.93
2018-04-29T19:30:05.422Z,66.77
2018-04-29T19:32:33.418Z,83.50
2018-04-29T19:35:01.439Z,36.27
2018-04-29T19:37:29.485Z,38.07
2018-04-29T19:39:57.534Z,35.17
2018-04-29T19:42:26.410Z,61.67
2018-04-29T19:44:54.449Z,30.67
2018-04-29T19:47:22.438Z,32.00
2018-04-29T19:49:51.058Z,23.53
2018-04-29T19:52:19.061Z,22.60
2018-04-29T19:54:47.034Z,21.83
2018-04-29T19:57:15.034Z,21.03
2018-04-29T19:59:43.044Z,19.63
2018-04-29T20:02:11.034Z,20.90
2018-04-29T20:04:39.178Z,23.80
2018-04-29T20:07:07.142Z,22.57
2018-04-29T20:09:35.105Z,25.30
2018-04-29T20:12:03.055Z,25.10
2018-04-29T20:14:31.031Z,25.20
2018-04-29T20:16:59.033Z,28.37
2018-04-29T20:19:27.056Z,25.17
2018-04-29T20:21:55.043Z,29.63
2018-04-29T20:24:22.992Z,33.03
2018-04-29T20:26:51.114Z,28.93
2018-04-29T20:29:19.102Z,28.83
2018-04-29T20:31:47.175Z,29.27
2018-04-29T20:34:15.051Z,31.80
2018-04-29T20:36:43.042Z,28.90
2018-04-29T20:39:11.023Z,28.87
2018-04-29T20:41:38.978Z,42.40
2018-04-29T20:44:06.970Z,30.67
2018-04-29T20:46:34.940Z,29.63
2018-04-29T20:49:03.091Z,35.80
2018-04-29T20:51:31.039Z,29.10
2018-04-29T20:53:59.034Z,28.40
2018-04-29T20:56:27.007Z,30.80
2018-04-29T20:58:54.980Z,30.07
2018-04-29T21:01:22.965Z,34.13
2018-04-29T21:03:50.933Z,30.90
2018-04-29T21:06:19.155Z,28.60
2018-04-29T21:08:47.119Z,29.33
2018-04-29T21:11:15.106Z,30.40
2018-04-29T21:13:43.242Z,29.67
2018-04-29T21:16:11.188Z,29.83
2018-04-29T21:18:39.210Z,27.40
2018-04-29T21:21:07.183Z,28.23
2018-04-29T21:23:35.131Z,26.87
2018-04-29T21:26:03.126Z,27.30
2018-04-29T21:28:31.094Z,26.40
2018-04-29T21:30:59.415Z,27.73
2018-04-29T21:33:27.354Z,28.90
2018-04-29T21:35:55.462Z,28.57
2018-04-29T21:38:23.409Z,28.73
2018-04-29T21:40:51.340Z,26.10
2018-04-29T21:43:19.330Z,28.27
2018-04-29T21:45:47.307Z,27.23
2018-04-29T21:48:15.278Z,25.70
2018-04-29T21:50:43.328Z,27.30
2018-04-29T21:53:11.313Z,31.77
2018-04-29T21:55:39.333Z,36.00
2018-04-29T21:58:07.559Z,32.03
2018-04-29T22:00:35.522Z,29.57
2018-04-29T22:03:03.546Z,29.07
2018-04-29T22:05:31.546Z,27.83
2018-04-29T22:07:59.648Z,28.20
2018-04-29T22:10:27.590Z,29.33
2018-04-29T22:12:55.771Z,28.20
2018-04-29T22:15:23.778Z,28.10
2018-04-29T22:17:51.762Z,29.67
2018-04-29T22:20:19.709Z,27.60
2018-04-29T22:22:47.660Z,29.20
2018-04-29T22:25:15.600Z,28.73
2018-04-29T22:27:43.569Z,31.30
2018-04-29T22:30:11.538Z,34.83
2018-04-29T22:32:39.511Z,32.63
2018-04-29T22:35:07.501Z,30.27
2018-04-29T22:37:35.443Z,29.77
2018-04-29T22:40:03.423Z,29.73
2018-04-29T22:42:31.371Z,27.90
2018-04-29T22:44:59.293Z,30.70
2018-04-29T22:47:27.234Z,31.33
2018-04-29T22:49:55.171Z,32.70
2018-04-29T22:52:23.108Z,30.20
2018-04-29T22:54:51.035Z,29.97
2018-04-29T22:57:18.957Z,30.00
2018-04-29T22:59:46.895Z,29.87
2018-04-29T23:02:14.843Z,31.90
2018-04-29T23:04:42.774Z,31.40
2018-04-29T23:07:10.698Z,30.10
2018-04-29T23:09:38.818Z,32.50
2018-04-29T23:12:06.760Z,31.13
2018-04-29T23:14:34.684Z,30.60
2018-04-29T23:17:02.685Z,29.97
2018-04-29T23:19:30.630Z,30.43
2018-04-29T23:21:58.544Z,29.10
2018-04-29T23:24:26.487Z,29.07
2018-04-29T23:26:54.432Z,28.50
2018-04-29T23:29:22.366Z,30.30
2018-04-29T23:31:50.306Z,30.30
2018-04-29T23:34:18.226Z,27.87
2018-04-29T23:36:46.228Z,27.67
2018-04-29T23:39:14.087Z,29.60
2018-04-29T23:41:42.001Z,28.77
2018-04-29T23:44:09.915Z,26.23
2018-04-29T23:46:37.905Z,27.60
2018-04-29T23:49:05.922Z,27.47
2018-04-29T23:51:33.904Z,28.27
2018-04-29T23:54:01.845Z,26.13
2018-04-29T23:56:29.767Z,25.60
2018-04-29T23:58:57.724Z,26.50
